Time;durP1;ratioP1;P1;durP2;ratioP2;P2;SDS_P1;SDS_P2;PMS_P1;PMS_P2;Temp;Humidity;BMP_temperature;BMP_pressure;BME280_temperature;BME280_humidity;BME280_pressure;Samples;Min_cycle;Max_cycle;Signal;HPM_P1;HPM_P2
2021/05/21 00:00:13;;;;;;;;;;;9.30;91.60;;;;;;5062877;28;19957;-65
2021/05/21 00:02:39;;;;;;;;;;;9.20;91.60;;;;;;5060085;28;20288;-65
2021/05/21 00:05:05;;;;;;;;;;;9.20;91.90;;;;;;5062738;28;20008;-65
2021/05/21 00:07:30;;;;;;;;;;;9.20;91.90;;;;;;5060877;28;20011;-65
2021/05/21 00:09:56;;;;;;;;;;;9.10;91.90;;;;;;5055556;28;20079;-65
2021/05/21 00:12:21;;;;;;;;;;;9.10;92.00;;;;;;5060632;28;20041;-65
2021/05/21 00:14:47;;;;;;;;;;;9.10;92.50;;;;;;5061467;28;19912;-65
2021/05/21 00:17:12;;;;;;;;;;;9.10;92.50;;;;;;5061502;28;19970;-66
2021/05/21 00:19:38;;;;;;;;;;;9.10;92.40;;;;;;5061852;28;19919;-67
2021/05/21 00:22:03;;;;;;;;;;;9.10;92.60;;;;;;5065694;28;19917;-66
2021/05/21 00:24:29;;;;;;;;;;;9.20;92.50;;;;;;5059350;28;20023;-66
2021/05/21 00:26:54;;;;;;;;;;;9.10;92.40;;;;;;5061172;28;20422;-67
2021/05/21 00:29:20;;;;;;;;;;;9.10;92.30;;;;;;5061677;28;19970;-66
2021/05/21 00:31:45;;;;;;;;;;;9.10;92.40;;;;;;5061388;28;20359;-65
2021/05/21 00:34:11;;;;;;;;;;;9.10;92.20;;;;;;5060690;28;19926;-66
2021/05/21 00:36:36;;;;;;;;;;;9.00;92.20;;;;;;5061276;28;20577;-66
2021/05/21 00:39:02;;;;;;;;;;;9.00;92.20;;;;;;5058984;28;19971;-66
2021/05/21 00:41:29;;;;;;;;;;;9.00;92.00;;;;;;5056525;28;20041;-66
2021/05/21 00:43:56;;;;;;;;;;;8.90;92.00;;;;;;5060426;28;19989;-66
2021/05/21 00:46:21;;;;;;;;;;;8.90;92.20;;;;;;5060542;28;20371;-66
2021/05/21 00:48:47;;;;;;;;;;;8.90;92.10;;;;;;5060497;28;20141;-66
2021/05/21 00:51:12;;;;;;;;;;;8.90;92.30;;;;;;5044532;28;20047;-66
2021/05/21 00:53:39;;;;;;;;;;;8.90;91.90;;;;;;5057294;28;20019;-67
2021/05/21 00:56:05;;;;;;;;;;;8.90;91.90;;;;;;5059439;28;19921;-66
2021/05/21 00:58:31;;;;;;;;;;;8.90;91.80;;;;;;5061759;28;19913;-66
2021/05/21 01:00:56;;;;;;;;;;;8.80;91.80;;;;;;5063098;28;19950;-66
2021/05/21 01:03:22;;;;;;;;;;;8.90;91.70;;;;;;5066617;28;20377;-66
2021/05/21 01:05:47;;;;;;;;;;;8.80;91.80;;;;;;5063403;28;20310;-66
2021/05/21 01:08:13;;;;;;;;;;;8.80;91.80;;;;;;5065249;28;20081;-67
2021/05/21 01:10:39;;;;;;;;;;;8.80;91.70;;;;;;5060371;28;20447;-67
2021/05/21 01:13:04;;;;;;;;;;;8.80;91.70;;;;;;5065916;28;20019;-66
2021/05/21 01:15:33;;;;;;;;;;;8.80;91.80;;;;;;5063334;28;19919;-65
2021/05/21 01:17:59;;;;;;;;;;;8.70;91.80;;;;;;5066239;28;19921;-66
2021/05/21 01:20:24;;;;;;;;;;;8.80;92.00;;;;;;5057170;28;19928;-66
2021/05/21 01:22:50;;;;;;;;;;;8.70;92.00;;;;;;5072189;28;20003;-66
2021/05/21 01:25:15;;;;;;;;;;;8.70;92.00;;;;;;5066017;28;19916;-66
2021/05/21 01:27:41;;;;;;;;;;;8.70;92.10;;;;;;5069561;28;19943;-66
2021/05/21 01:30:07;;;;;;;;;;;8.60;92.20;;;;;;5066554;28;19962;-66
2021/05/21 01:32:32;;;;;;;;;;;8.60;92.20;;;;;;5069951;28;19947;-66
2021/05/21 01:34:58;;;;;;;;;;;8.60;92.30;;;;;;5064966;28;20374;-66
2021/05/21 01:37:24;;;;;;;;;;;8.60;92.40;;;;;;5070184;28;20439;-66
2021/05/21 01:39:50;;;;;;;;;;;8.60;92.40;;;;;;5086226;28;19912;-66
2021/05/21 01:42:16;;;;;;;;;;;8.50;92.40;;;;;;5067081;28;20397;-66
2021/05/21 01:44:41;;;;;;;;;;;8.50;92.50;;;;;;5067112;28;19919;-66
2021/05/21 01:47:11;;;;;;;;;;;8.50;92.50;;;;;;5066763;28;20015;-66
2021/05/21 01:49:37;;;;;;;;;;;8.50;92.70;;;;;;5068237;28;19987;-66
2021/05/21 01:52:02;;;;;;;;;;;8.50;92.50;;;;;;5065158;28;19994;-66
2021/05/21 01:54:29;;;;;;;;;;;8.40;92.60;;;;;;5068535;28;19916;-66
2021/05/21 01:56:57;;;;;;;;;;;8.40;92.40;;;;;;5064301;28;20370;-66
2021/05/21 01:59:24;;;;;;;;;;;8.40;92.60;;;;;;5068845;28;19958;-67
2021/05/21 02:01:49;;;;;;;;;;;8.30;92.90;;;;;;5065282;28;19908;-66
2021/05/21 02:04:15;;;;;;;;;;;8.30;92.80;;;;;;5068675;28;20117;-66
2021/05/21 02:06:41;;;;;;;;;;;8.30;92.80;;;;;;5067114;28;20030;-66
2021/05/21 02:09:08;;;;;;;;;;;8.30;92.90;;;;;;5068147;28;19939;-65
2021/05/21 02:11:33;;;;;;;;;;;8.30;92.90;;;;;;5065237;28;19932;-66
2021/05/21 02:13:59;;;;;;;;;;;8.20;92.90;;;;;;5061630;28;20030;-66
2021/05/21 02:16:24;;;;;;;;;;;8.20;93.00;;;;;;5068740;28;19944;-66
2021/05/21 02:18:50;;;;;;;;;;;8.20;93.30;;;;;;5056962;28;19908;-66
2021/05/21 02:21:16;;;;;;;;;;;8.20;93.10;;;;;;5050613;28;20135;-66
2021/05/21 02:23:41;;;;;;;;;;;8.10;93.30;;;;;;5066187;28;19952;-66
2021/05/21 02:26:07;;;;;;;;;;;8.20;93.30;;;;;;5065219;28;19917;-67
2021/05/21 02:28:32;;;;;;;;;;;8.20;93.30;;;;;;5068502;28;19965;-66
2021/05/21 02:30:59;;;;;;;;;;;8.20;93.30;;;;;;5058823;28;19917;-67
2021/05/21 02:33:24;;;;;;;;;;;8.10;93.30;;;;;;5064378;28;20159;-66
2021/05/21 02:35:50;;;;;;;;;;;8.20;93.40;;;;;;5066318;28;20559;-66
2021/05/21 02:38:15;;;;;;;;;;;8.20;93.20;;;;;;5067981;28;20027;-66
2021/05/21 02:40:41;;;;;;;;;;;8.30;93.30;;;;;;5062031;28;20009;-66
2021/05/21 02:43:06;;;;;;;;;;;8.30;93.10;;;;;;5046830;28;20017;-66
2021/05/21 02:45:32;;;;;;;;;;;8.30;93.00;;;;;;5065979;28;19923;-66
2021/05/21 02:47:58;;;;;;;;;;;8.30;93.00;;;;;;5064325;28;19909;-66
2021/05/21 02:50:23;;;;;;;;;;;8.30;92.90;;;;;;5065053;28;19936;-66
2021/05/21 02:52:49;;;;;;;;;;;8.30;92.80;;;;;;5064242;28;20046;-66
2021/05/21 02:55:15;;;;;;;;;;;8.20;93.00;;;;;;5064853;28;19943;-66
2021/05/21 02:57:41;;;;;;;;;;;8.20;92.80;;;;;;5063869;28;20303;-66
2021/05/21 03:00:06;;;;;;;;;;;8.10;92.90;;;;;;5065610;28;19924;-66
2021/05/21 03:02:32;;;;;;;;;;;8.10;93.00;;;;;;5063761;28;19912;-66
2021/05/21 03:04:57;;;;;;;;;;;8.10;93.10;;;;;;5066092;28;20411;-65
2021/05/21 03:07:23;;;;;;;;;;;8.10;92.90;;;;;;5065879;28;19948;-66
2021/05/21 03:09:48;;;;;;;;;;;8.10;92.90;;;;;;5066261;28;19909;-66
2021/05/21 03:12:14;;;;;;;;;;;8.10;92.70;;;;;;5060071;28;19989;-66
2021/05/21 03:14:40;;;;;;;;;;;8.00;92.80;;;;;;5065284;28;19916;-66
2021/05/21 03:17:05;;;;;;;;;;;8.10;92.90;;;;;;5050470;28;20191;-66
2021/05/21 03:19:31;;;;;;;;;;;8.10;93.10;;;;;;5067775;28;19924;-66
2021/05/21 03:21:57;;;;;;;;;;;8.10;93.10;;;;;;5068818;28;19913;-66
2021/05/21 03:24:22;;;;;;;;;;;8.10;93.00;;;;;;5066684;28;19912;-65
2021/05/21 03:26:48;;;;;;;;;;;8.10;92.60;;;;;;5066228;28;19912;-66
2021/05/21 03:29:14;;;;;;;;;;;8.10;92.70;;;;;;5065597;28;19931;-66
2021/05/21 03:31:39;;;;;;;;;;;8.00;92.70;;;;;;5065472;28;19957;-66
2021/05/21 03:34:05;;;;;;;;;;;8.00;92.80;;;;;;5064455;28;20007;-66
2021/05/21 03:36:30;;;;;;;;;;;8.10;92.60;;;;;;5066235;28;20106;-65
2021/05/21 03:38:56;;;;;;;;;;;8.10;92.60;;;;;;5064604;28;20269;-66
2021/05/21 03:41:21;;;;;;;;;;;8.10;92.60;;;;;;5065907;28;19927;-65
2021/05/21 03:43:47;;;;;;;;;;;8.10;92.70;;;;;;5064245;28;19920;-66
2021/05/21 03:46:13;;;;;;;;;;;8.20;92.30;;;;;;5065471;28;19921;-67
2021/05/21 03:48:38;;;;;;;;;;;8.20;92.10;;;;;;5065941;28;20004;-67
2021/05/21 03:51:04;;;;;;;;;;;8.20;92.00;;;;;;5065574;28;19927;-66
2021/05/21 03:53:29;;;;;;;;;;;8.30;91.90;;;;;;5063818;28;20349;-66
2021/05/21 03:55:55;;;;;;;;;;;8.20;91.60;;;;;;5062194;28;20405;-67
2021/05/21 03:58:20;;;;;;;;;;;8.30;91.80;;;;;;5066607;28;19915;-66
2021/05/21 04:00:46;;;;;;;;;;;8.30;91.60;;;;;;5064340;28;20410;-66
2021/05/21 04:03:11;;;;;;;;;;;8.30;91.70;;;;;;5065702;28;20292;-66
2021/05/21 04:05:37;;;;;;;;;;;8.30;91.50;;;;;;5064469;28;20258;-66
2021/05/21 04:08:03;;;;;;;;;;;8.30;91.70;;;;;;5047295;28;20568;-66
2021/05/21 04:10:29;;;;;;;;;;;8.40;91.20;;;;;;5060312;28;20107;-66
2021/05/21 04:12:54;;;;;;;;;;;8.50;91.20;;;;;;5064210;28;20166;-66
2021/05/21 04:15:20;;;;;;;;;;;8.60;90.70;;;;;;5064526;28;19985;-66
2021/05/21 04:17:45;;;;;;;;;;;8.60;90.50;;;;;;5065378;28;20224;-66
2021/05/21 04:20:13;;;;;;;;;;;8.80;89.70;;;;;;5061257;28;20384;-66
2021/05/21 04:22:38;;;;;;;;;;;8.80;89.70;;;;;;5062751;28;19956;-66
2021/05/21 04:25:04;;;;;;;;;;;9.00;88.90;;;;;;5062915;28;19951;-67
2021/05/21 04:27:30;;;;;;;;;;;9.10;88.60;;;;;;5046572;28;19927;-66
2021/05/21 04:29:55;;;;;;;;;;;9.10;88.50;;;;;;5065951;28;19916;-66
2021/05/21 04:32:21;;;;;;;;;;;9.30;87.80;;;;;;5064291;28;19970;-66
2021/05/21 04:34:46;;;;;;;;;;;9.30;87.80;;;;;;5063590;28;20049;-66
2021/05/21 04:37:12;;;;;;;;;;;9.50;87.10;;;;;;5064481;28;20086;-66
2021/05/21 04:39:37;;;;;;;;;;;9.50;87.20;;;;;;5060242;28;20030;-67
2021/05/21 04:42:03;;;;;;;;;;;9.60;86.80;;;;;;5059892;28;19912;-66
2021/05/21 04:44:28;;;;;;;;;;;9.70;86.60;;;;;;5062006;28;19995;-66
2021/05/21 04:46:54;;;;;;;;;;;9.80;86.10;;;;;;5064602;28;19923;-66
2021/05/21 04:49:32;;;;;;;;;;;9.90;85.40;;;;;;5064144;28;19909;-66
2021/05/21 04:52:07;;;;;;;;;;;10.00;85.30;;;;;;5066265;28;19970;-66
2021/05/21 04:54:36;;;;;;;;;;;10.10;84.50;;;;;;5061167;28;19928;-67
2021/05/21 04:57:01;;;;;;;;;;;10.20;84.60;;;;;;5060705;28;20003;-66
2021/05/21 04:59:27;;;;;;;;;;;10.20;84.90;;;;;;5062400;28;20461;-67
2021/05/21 05:01:53;;;;;;;;;;;10.50;82.80;;;;;;5070844;28;19984;-66
2021/05/21 05:04:19;;;;;;;;;;;10.50;83.40;;;;;;5044129;28;20249;-67
2021/05/21 05:06:45;;;;;;;;;;;10.50;83.60;;;;;;5061486;28;19923;-66
2021/05/21 05:09:11;;;;;;;;;;;10.70;82.30;;;;;;5063813;28;19913;-67
2021/05/21 05:11:39;;;;;;;;;;;10.70;82.50;;;;;;5063435;28;20494;-66
2021/05/21 05:14:05;;;;;;;;;;;10.80;82.10;;;;;;5054896;28;20325;-66
2021/05/21 05:16:31;;;;;;;;;;;10.90;82.50;;;;;;5067069;28;19955;-66
2021/05/21 05:18:56;;;;;;;;;;;10.90;82.90;;;;;;5063277;28;19908;-66
2021/05/21 05:21:22;;;;;;;;;;;11.00;82.20;;;;;;5065295;28;19920;-66
2021/05/21 05:23:48;;;;;;;;;;;11.00;82.10;;;;;;5069923;28;19958;-67
2021/05/21 05:26:13;;;;;;;;;;;11.20;81.70;;;;;;5065137;28;19928;-66
2021/05/21 05:28:41;;;;;;;;;;;11.40;81.50;;;;;;5063888;28;19951;-67
2021/05/21 05:31:07;;;;;;;;;;;11.50;80.70;;;;;;5054383;28;20063;-67
2021/05/21 05:33:32;;;;;;;;;;;11.60;80.20;;;;;;5060995;28;20007;-67
2021/05/21 05:35:59;;;;;;;;;;;11.70;79.90;;;;;;5050454;28;19955;-67
2021/05/21 05:38:25;;;;;;;;;;;11.70;79.60;;;;;;5058492;28;19990;-67
2021/05/21 05:40:51;;;;;;;;;;;11.70;79.20;;;;;;5058658;28;20138;-66
2021/05/21 05:43:16;;;;;;;;;;;11.80;78.90;;;;;;5060390;28;20326;-67
2021/05/21 05:45:42;;;;;;;;;;;11.80;79.00;;;;;;5061555;28;19912;-67
2021/05/21 05:48:07;;;;;;;;;;;11.90;79.50;;;;;;5062814;28;20007;-67
2021/05/21 05:50:33;;;;;;;;;;;12.00;79.20;;;;;;5060319;28;19920;-67
2021/05/21 05:53:00;;;;;;;;;;;12.30;78.10;;;;;;5057812;28;19921;-69
2021/05/21 05:55:25;;;;;;;;;;;12.50;76.30;;;;;;5061481;28;20020;-67
2021/05/21 05:57:51;;;;;;;;;;;12.80;76.30;;;;;;5067532;28;19999;-67
2021/05/21 06:00:17;;;;;;;;;;;12.90;76.20;;;;;;5061031;28;20002;-67
2021/05/21 06:02:42;;;;;;;;;;;12.80;76.40;;;;;;5060950;28;19948;-67
2021/05/21 06:05:08;;;;;;;;;;;12.90;76.60;;;;;;5037505;28;19967;-68
2021/05/21 06:07:33;;;;;;;;;;;13.20;75.70;;;;;;5049348;28;19913;-68
2021/05/21 06:09:59;;;;;;;;;;;13.50;73.90;;;;;;5061926;28;20020;-67
2021/05/21 06:12:24;;;;;;;;;;;13.90;74.10;;;;;;5059485;28;19924;-68
2021/05/21 06:14:50;;;;;;;;;;;14.30;71.60;;;;;;5046769;28;19943;-67
2021/05/21 06:17:17;;;;;;;;;;;14.40;72.50;;;;;;5063495;28;19920;-67
2021/05/21 06:19:43;;;;;;;;;;;14.30;72.10;;;;;;5064814;28;19970;-67
2021/05/21 06:22:08;;;;;;;;;;;14.10;71.80;;;;;;5066780;28;19955;-68
2021/05/21 06:24:35;;;;;;;;;;;14.00;72.70;;;;;;5064155;28;20152;-68
2021/05/21 06:27:17;;;;;;;;;;;13.80;72.00;;;;;;5061874;28;20318;-69
2021/05/21 06:29:43;;;;;;;;;;;13.60;71.30;;;;;;5063632;28;19912;-68
2021/05/21 06:32:08;;;;;;;;;;;13.50;72.30;;;;;;5045917;28;20357;-68
2021/05/21 06:34:34;;;;;;;;;;;13.40;73.30;;;;;;5064738;28;19925;-68
2021/05/21 06:36:59;;;;;;;;;;;13.30;73.60;;;;;;5053351;28;19916;-68
2021/05/21 06:39:25;;;;;;;;;;;13.30;75.30;;;;;;5058591;28;20567;-68
2021/05/21 06:41:51;;;;;;;;;;;13.30;73.80;;;;;;5065443;28;20175;-67
2021/05/21 06:44:17;;;;;;;;;;;13.50;73.00;;;;;;5057230;28;20440;-67
2021/05/21 06:46:42;;;;;;;;;;;13.60;73.80;;;;;;5061929;28;19913;-67
2021/05/21 06:49:11;;;;;;;;;;;13.60;73.50;;;;;;5065413;28;19916;-68
2021/05/21 06:51:37;;;;;;;;;;;13.70;73.00;;;;;;5075758;28;20367;-67
2021/05/21 06:54:03;;;;;;;;;;;13.70;73.00;;;;;;5064483;28;19950;-67
2021/05/21 06:56:29;;;;;;;;;;;13.70;72.80;;;;;;5059026;28;20333;-67
2021/05/21 06:58:54;;;;;;;;;;;13.70;71.90;;;;;;5062808;28;19927;-67
2021/05/21 07:01:20;;;;;;;;;;;13.70;72.50;;;;;;5064903;28;19912;-67
2021/05/21 07:03:45;;;;;;;;;;;13.80;72.60;;;;;;5063698;28;19916;-68
2021/05/21 07:06:11;;;;;;;;;;;14.00;71.00;;;;;;5065375;28;19913;-68
2021/05/21 07:08:36;;;;;;;;;;;14.10;71.80;;;;;;5067271;28;19916;-67
2021/05/21 07:11:02;;;;;;;;;;;14.00;71.60;;;;;;5065625;28;19923;-66
2021/05/21 07:13:29;;;;;;;;;;;13.90;71.60;;;;;;5068198;28;19923;-67
2021/05/21 07:15:55;;;;;;;;;;;13.90;71.30;;;;;;5064658;28;19973;-67
2021/05/21 07:18:21;;;;;;;;;;;13.80;71.20;;;;;;5062265;28;20618;-68
2021/05/21 07:20:47;;;;;;;;;;;13.90;70.60;;;;;;5058391;28;19917;-67
2021/05/21 07:23:13;;;;;;;;;;;13.90;71.70;;;;;;5066951;28;19917;-67
2021/05/21 07:25:39;;;;;;;;;;;14.00;72.40;;;;;;5046598;28;20174;-67
2021/05/21 07:28:04;;;;;;;;;;;13.90;71.30;;;;;;5064804;28;20022;-68
2021/05/21 07:30:30;;;;;;;;;;;13.80;72.00;;;;;;5065873;28;20444;-67
2021/05/21 07:32:55;;;;;;;;;;;13.70;74.10;;;;;;5063414;28;20406;-67
2021/05/21 07:35:21;;;;;;;;;;;13.30;75.90;;;;;;5063445;28;19938;-67
2021/05/21 07:37:47;;;;;;;;;;;13.00;78.20;;;;;;5047918;28;19912;-67
2021/05/21 07:40:12;;;;;;;;;;;12.90;80.60;;;;;;5062127;28;19927;-66
2021/05/21 07:42:38;;;;;;;;;;;12.70;81.70;;;;;;5067201;28;20025;-67
2021/05/21 07:45:07;;;;;;;;;;;12.50;82.30;;;;;;5066944;28;20026;-67
2021/05/21 07:47:33;;;;;;;;;;;11.60;87.90;;;;;;5061227;28;20006;-67
2021/05/21 07:49:59;;;;;;;;;;;11.10;90.50;;;;;;5069495;28;20039;-69
2021/05/21 07:52:24;;;;;;;;;;;10.90;91.60;;;;;;5069882;28;19951;-68
2021/05/21 07:54:50;;;;;;;;;;;10.80;92.50;;;;;;5067569;28;19912;-68
2021/05/21 07:57:15;;;;;;;;;;;11.00;92.60;;;;;;5064970;28;20317;-68
2021/05/21 07:59:41;;;;;;;;;;;11.30;92.10;;;;;;5066699;28;20315;-68
2021/05/21 08:02:06;;;;;;;;;;;11.30;90.00;;;;;;5061834;28;20291;-68
2021/05/21 08:04:32;;;;;;;;;;;11.10;89.80;;;;;;5068016;28;20364;-68
2021/05/21 08:06:57;;;;;;;;;;;11.00;89.50;;;;;;5064493;28;19930;-67
2021/05/21 08:09:23;;;;;;;;;;;10.90;90.00;;;;;;5062559;28;20135;-68
2021/05/21 08:11:49;;;;;;;;;;;10.80;88.50;;;;;;5045494;28;20326;-67
2021/05/21 08:14:14;;;;;;;;;;;10.90;89.00;;;;;;5064653;28;20018;-67
2021/05/21 08:16:40;;;;;;;;;;;10.80;89.40;;;;;;5065172;28;20015;-67
2021/05/21 08:19:05;;;;;;;;;;;11.00;90.10;;;;;;5060839;28;19931;-68
2021/05/21 08:21:31;;;;;;;;;;;10.90;90.30;;;;;;5062948;28;19932;-65
2021/05/21 08:23:57;;;;;;;;;;;11.00;91.70;;;;;;5063268;28;19921;-68
2021/05/21 08:26:25;;;;;;;;;;;11.10;91.60;;;;;;5072803;28;19981;-65
2021/05/21 08:28:54;;;;;;;;;;;11.00;90.80;;;;;;5064907;28;19912;-67
2021/05/21 08:31:20;;;;;;;;;;;10.90;89.90;;;;;;5062363;28;19913;-67
2021/05/21 08:33:46;;;;;;;;;;;10.80;89.90;;;;;;5065444;28;19928;-67
2021/05/21 08:36:12;;;;;;;;;;;10.80;90.00;;;;;;5069410;28;20063;-66
2021/05/21 08:38:41;;;;;;;;;;;10.90;90.50;;;;;;5065981;28;20393;-67
2021/05/21 08:41:07;;;;;;;;;;;11.00;90.40;;;;;;5068983;28;19924;-67
2021/05/21 08:43:33;;;;;;;;;;;11.30;89.10;;;;;;5062654;28;19965;-67
2021/05/21 08:45:58;;;;;;;;;;;11.40;88.00;;;;;;5065049;28;19916;-66
2021/05/21 08:48:24;;;;;;;;;;;11.60;87.80;;;;;;5067827;28;20019;-67
2021/05/21 08:50:49;;;;;;;;;;;11.60;85.80;;;;;;5067305;28;19913;-67
2021/05/21 08:53:15;;;;;;;;;;;11.80;86.30;;;;;;5066774;28;19920;-67
2021/05/21 08:55:40;;;;;;;;;;;12.10;87.00;;;;;;5064194;28;20066;-67
2021/05/21 08:58:10;;;;;;;;;;;12.50;84.10;;;;;;5063074;28;19980;-67
2021/05/21 09:00:37;;;;;;;;;;;12.80;83.60;;;;;;5067918;28;19988;-66
2021/05/21 09:03:15;;;;;;;;;;;13.10;79.10;;;;;;5061459;28;20387;-65
2021/05/21 09:05:41;;;;;;;;;;;13.20;77.70;;;;;;5063995;28;19943;-67
2021/05/21 09:08:07;;;;;;;;;;;13.10;77.20;;;;;;5069610;28;20310;-68
2021/05/21 09:10:32;;;;;;;;;;;13.00;79.30;;;;;;5061114;28;19920;-67
2021/05/21 09:12:59;;;;;;;;;;;12.90;78.00;;;;;;5060801;28;20050;-67
2021/05/21 09:15:25;;;;;;;;;;;12.90;77.80;;;;;;5064567;28;20050;-67
2021/05/21 09:17:51;;;;;;;;;;;12.80;78.90;;;;;;5074952;28;19935;-67
2021/05/21 09:20:22;;;;;;;;;;;12.80;79.10;;;;;;5062524;28;20353;-66
2021/05/21 09:23:07;;;;;;;;;;;12.70;76.70;;;;;;5063751;28;20169;-67
2021/05/21 09:25:36;;;;;;;;;;;13.00;76.60;;;;;;5067827;28;19912;-68
2021/05/21 09:28:02;;;;;;;;;;;13.40;75.70;;;;;;5068616;28;19982;-67
2021/05/21 09:30:27;;;;;;;;;;;13.80;75.80;;;;;;5065207;28;20349;-67
2021/05/21 09:33:03;;;;;;;;;;;13.60;74.20;;;;;;5059918;28;19932;-67
2021/05/21 09:35:29;;;;;;;;;;;13.30;73.50;;;;;;5066168;28;20273;-67
2021/05/21 09:37:56;;;;;;;;;;;13.30;72.30;;;;;;5074090;28;19917;-67
2021/05/21 09:40:22;;;;;;;;;;;13.20;74.10;;;;;;5060813;28;20211;-65
2021/05/21 09:42:48;;;;;;;;;;;13.60;72.90;;;;;;5063958;28;19986;-68
2021/05/21 09:45:18;;;;;;;;;;;14.00;74.30;;;;;;5072569;28;20000;-68
2021/05/21 09:47:47;;;;;;;;;;;13.70;70.90;;;;;;5053963;28;20472;-69
2021/05/21 09:50:12;;;;;;;;;;;13.70;74.10;;;;;;5071255;28;19952;-67
2021/05/21 09:52:43;;;;;;;;;;;13.60;74.80;;;;;;5068232;28;19978;-67
2021/05/21 09:55:08;;;;;;;;;;;13.60;75.30;;;;;;5072856;28;19920;-67
2021/05/21 09:57:35;;;;;;;;;;;13.90;77.20;;;;;;5067868;28;19917;-66
2021/05/21 10:00:01;;;;;;;;;;;14.10;77.60;;;;;;5067895;28;20065;-67
2021/05/21 10:02:28;;;;;;;;;;;14.70;75.60;;;;;;5066524;28;20015;-69
2021/05/21 10:04:54;;;;;;;;;;;15.40;73.20;;;;;;5046229;28;20351;-68
2021/05/21 10:07:20;;;;;;;;;;;16.00;70.60;;;;;;5065859;28;19921;-67
2021/05/21 10:09:46;;;;;;;;;;;15.90;70.00;;;;;;5068353;28;19957;-68
2021/05/21 10:12:11;;;;;;;;;;;15.90;66.90;;;;;;5070755;28;20429;-68
2021/05/21 10:14:37;;;;;;;;;;;16.50;65.30;;;;;;5066818;28;20272;-69
2021/05/21 10:17:03;;;;;;;;;;;16.50;65.20;;;;;;5065444;28;20405;-69
2021/05/21 10:19:29;;;;;;;;;;;16.20;66.60;;;;;;5064433;28;20065;-68
2021/05/21 10:21:55;;;;;;;;;;;15.70;68.20;;;;;;5072436;28;19996;-67
2021/05/21 10:24:21;;;;;;;;;;;15.10;68.80;;;;;;5075094;28;19924;-67
2021/05/21 10:26:54;;;;;;;;;;;14.80;71.60;;;;;;5071432;28;20299;-67
2021/05/21 10:29:25;;;;;;;;;;;14.60;71.70;;;;;;5046861;28;20013;-69
2021/05/21 10:31:51;;;;;;;;;;;14.50;72.20;;;;;;5064178;28;19978;-66
2021/05/21 10:34:20;;;;;;;;;;;14.50;72.80;;;;;;5065688;28;19932;-68
2021/05/21 10:36:46;;;;;;;;;;;14.50;73.10;;;;;;5064062;28;19942;-67
2021/05/21 10:39:21;;;;;;;;;;;14.30;72.50;;;;;;5061042;28;19921;-67
2021/05/21 10:41:50;;;;;;;;;;;14.30;73.20;;;;;;5055897;28;20336;-68
2021/05/21 10:44:19;;;;;;;;;;;14.00;73.20;;;;;;5062619;28;19916;-67
2021/05/21 10:46:44;;;;;;;;;;;13.80;70.60;;;;;;5043740;28;20396;-67
2021/05/21 10:49:19;;;;;;;;;;;13.80;70.90;;;;;;5063304;28;19913;-68
2021/05/21 10:52:01;;;;;;;;;;;13.70;71.00;;;;;;5060049;28;20330;-67
2021/05/21 10:54:26;;;;;;;;;;;14.00;71.80;;;;;;5059641;28;19969;-68
2021/05/21 10:56:55;;;;;;;;;;;14.20;69.80;;;;;;5057321;28;20416;-67
2021/05/21 10:59:21;;;;;;;;;;;14.60;72.60;;;;;;5060382;28;20009;-67
2021/05/21 11:01:47;;;;;;;;;;;14.80;70.20;;;;;;5057813;28;20376;-68
2021/05/21 11:04:13;;;;;;;;;;;15.10;69.70;;;;;;5057051;28;20021;-69
2021/05/21 11:06:47;;;;;;;;;;;15.50;66.50;;;;;;5059788;28;19913;-68
2021/05/21 11:09:14;;;;;;;;;;;15.80;64.80;;;;;;5060375;28;19919;-68
2021/05/21 11:11:42;;;;;;;;;;;15.50;66.00;;;;;;5058153;28;19931;-68
2021/05/21 11:14:18;;;;;;;;;;;15.20;67.30;;;;;;5060764;28;19928;-67
2021/05/21 11:16:50;;;;;;;;;;;14.80;67.00;;;;;;5058792;28;20565;-67
2021/05/21 11:19:20;;;;;;;;;;;14.40;69.10;;;;;;5058092;28;19921;-68
2021/05/21 11:21:46;;;;;;;;;;;14.10;70.00;;;;;;5056313;28;19931;-68
2021/05/21 11:24:12;;;;;;;;;;;13.70;71.30;;;;;;5053488;28;20023;-69
2021/05/21 11:26:41;;;;;;;;;;;13.50;69.10;;;;;;5061506;28;20027;-67
2021/05/21 11:29:08;;;;;;;;;;;13.30;71.20;;;;;;5052075;28;19912;-68
2021/05/21 11:31:36;;;;;;;;;;;13.00;75.60;;;;;;5056447;28;19920;-67
2021/05/21 11:34:03;;;;;;;;;;;12.30;79.80;;;;;;5059288;28;19920;-70
2021/05/21 11:36:34;;;;;;;;;;;11.90;81.60;;;;;;5062867;28;20551;-69
2021/05/21 11:39:00;;;;;;;;;;;11.70;81.90;;;;;;5059592;28;19965;-68
2021/05/21 11:41:30;;;;;;;;;;;11.70;82.00;;;;;;5061128;28;19959;-67
2021/05/21 11:44:00;;;;;;;;;;;11.70;81.40;;;;;;5058690;28;19969;-66
2021/05/21 11:46:25;;;;;;;;;;;12.00;83.70;;;;;;5059680;28;20249;-67
2021/05/21 11:48:51;;;;;;;;;;;12.10;83.60;;;;;;5058183;28;19923;-69
2021/05/21 11:51:21;;;;;;;;;;;12.10;83.20;;;;;;5059225;28;19957;-68
2021/05/21 11:53:47;;;;;;;;;;;12.10;83.10;;;;;;5056078;28;20484;-67
2021/05/21 11:56:13;;;;;;;;;;;12.10;83.10;;;;;;5058025;28;19951;-69
2021/05/21 11:58:38;;;;;;;;;;;12.30;80.60;;;;;;5059626;28;20008;-66
2021/05/21 12:01:05;;;;;;;;;;;12.80;82.10;;;;;;5058852;28;19920;-67
2021/05/21 12:03:32;;;;;;;;;;;13.50;80.60;;;;;;5041938;28;20428;-68
2021/05/21 12:05:57;;;;;;;;;;;14.10;79.30;;;;;;5036833;28;20229;-67
2021/05/21 12:08:25;;;;;;;;;;;14.80;75.90;;;;;;5042971;28;19974;-68
2021/05/21 12:10:57;;;;;;;;;;;14.80;73.60;;;;;;5026505;28;20071;-68
2021/05/21 12:13:22;;;;;;;;;;;15.00;71.50;;;;;;5040992;28;20351;-68
2021/05/21 12:15:48;;;;;;;;;;;15.70;68.30;;;;;;5059923;28;19925;-69
2021/05/21 12:18:13;;;;;;;;;;;16.40;66.00;;;;;;5061290;28;19916;-68
2021/05/21 12:20:39;;;;;;;;;;;16.50;65.90;;;;;;5056782;28;20434;-67
2021/05/21 12:23:05;;;;;;;;;;;16.60;64.50;;;;;;5058201;28;20337;-67
2021/05/21 12:25:32;;;;;;;;;;;16.20;61.80;;;;;;5057476;28;19912;-67
2021/05/21 12:27:58;;;;;;;;;;;16.30;64.10;;;;;;5060408;28;19958;-67
2021/05/21 12:30:24;;;;;;;;;;;16.10;59.40;;;;;;5057764;28;19921;-66
2021/05/21 12:32:50;;;;;;;;;;;16.10;60.30;;;;;;5057733;28;19982;-67
2021/05/21 12:35:19;;;;;;;;;;;16.10;58.80;;;;;;5059884;28;20002;-67
2021/05/21 12:37:49;;;;;;;;;;;16.40;60.70;;;;;;5056106;28;19923;-66
2021/05/21 12:40:15;;;;;;;;;;;17.00;61.00;;;;;;5058395;28;20253;-68
2021/05/21 12:42:50;;;;;;;;;;;17.00;56.20;;;;;;5059045;28;19932;-66
2021/05/21 12:45:17;;;;;;;;;;;17.30;59.20;;;;;;5057224;28;19973;-67
2021/05/21 12:47:46;;;;;;;;;;;17.20;56.60;;;;;;5059341;28;19913;-68
2021/05/21 12:50:13;;;;;;;;;;;17.20;53.90;;;;;;5059766;28;20313;-65
2021/05/21 12:52:57;;;;;;;;;;;17.50;55.80;;;;;;5056925;28;19921;-67
2021/05/21 12:55:23;;;;;;;;;;;17.60;53.30;;;;;;5058160;28;20397;-68
2021/05/21 12:57:49;;;;;;;;;;;17.50;54.00;;;;;;5059036;28;19912;-69
2021/05/21 13:00:19;;;;;;;;;;;18.10;53.50;;;;;;5057981;28;19971;-67
2021/05/21 13:02:51;;;;;;;;;;;18.10;51.60;;;;;;5059320;28;19981;-65
2021/05/21 13:05:18;;;;;;;;;;;18.20;53.00;;;;;;5056395;28;19913;-67
2021/05/21 13:08:05;;;;;;;;;;;17.80;52.10;;;;;;5059195;28;19913;-67
2021/05/21 13:10:38;;;;;;;;;;;17.40;52.50;;;;;;5040395;28;20287;-68
2021/05/21 13:13:03;;;;;;;;;;;17.30;55.30;;;;;;5056103;28;19912;-68
2021/05/21 13:15:30;;;;;;;;;;;16.90;55.60;;;;;;5042135;28;19923;-66
2021/05/21 13:17:56;;;;;;;;;;;16.40;55.20;;;;;;5063052;28;19916;-67
2021/05/21 13:20:26;;;;;;;;;;;16.30;55.00;;;;;;5056961;28;19924;-65
2021/05/21 13:22:53;;;;;;;;;;;16.00;55.50;;;;;;5057265;28;20273;-66
2021/05/21 13:25:19;;;;;;;;;;;16.00;54.10;;;;;;5056828;28;19920;-67
2021/05/21 13:27:49;;;;;;;;;;;15.70;53.60;;;;;;5055707;28;19989;-67
2021/05/21 13:30:15;;;;;;;;;;;15.30;57.60;;;;;;5053876;28;20319;-67
2021/05/21 13:32:41;;;;;;;;;;;14.20;64.00;;;;;;5056555;28;19912;-67
2021/05/21 13:35:08;;;;;;;;;;;12.60;72.10;;;;;;5058651;28;20015;-67
2021/05/21 13:37:33;;;;;;;;;;;11.90;79.10;;;;;;5058446;28;20346;-67
2021/05/21 13:39:59;;;;;;;;;;;11.00;83.70;;;;;;5058842;28;19912;-66
2021/05/21 13:42:25;;;;;;;;;;;10.80;85.60;;;;;;5055030;28;20544;-66
2021/05/21 13:44:50;;;;;;;;;;;10.80;85.50;;;;;;5058252;28;19917;-66
2021/05/21 13:47:16;;;;;;;;;;;10.90;85.50;;;;;;5059040;28;19913;-67
2021/05/21 13:49:42;;;;;;;;;;;11.50;85.20;;;;;;5059085;28;19928;-67
2021/05/21 13:52:08;;;;;;;;;;;11.70;83.80;;;;;;5060057;28;19951;-69
2021/05/21 13:54:33;;;;;;;;;;;11.70;82.80;;;;;;5074083;28;20029;-65
2021/05/21 13:56:59;;;;;;;;;;;11.90;83.50;;;;;;5058686;28;20330;-67
2021/05/21 13:59:25;;;;;;;;;;;12.00;82.40;;;;;;5055100;28;20304;-68
2021/05/21 14:01:51;;;;;;;;;;;12.40;81.50;;;;;;5056960;28;20540;-67
2021/05/21 14:04:17;;;;;;;;;;;12.60;80.10;;;;;;5059146;28;19916;-67
2021/05/21 14:06:43;;;;;;;;;;;13.30;79.90;;;;;;5044373;28;19920;-67
2021/05/21 14:09:09;;;;;;;;;;;13.60;77.40;;;;;;5059524;28;20241;-68
2021/05/21 14:11:35;;;;;;;;;;;13.90;74.20;;;;;;5056901;28;20181;-66
2021/05/21 14:14:02;;;;;;;;;;;14.20;75.10;;;;;;5056668;28;20076;-67
2021/05/21 14:16:28;;;;;;;;;;;15.30;73.90;;;;;;5058645;28;19916;-67